createdAt,value
2023-03-01T00:01:27.346Z,103225.00
2023-03-01T00:03:54.686Z,103228.75
2023-03-01T00:06:22.252Z,103230.66
2023-03-01T00:08:49.528Z,103223.53
2023-03-01T00:11:19.341Z,103225.41
2023-03-01T00:13:46.977Z,103224.34
2023-03-01T00:16:19.434Z,103218.31
2023-03-01T00:18:46.381Z,103225.84
2023-03-01T00:21:13.482Z,103225.00
2023-03-01T00:23:40.410Z,103217.91
2023-03-01T00:26:09.290Z,103217.91
2023-03-01T00:28:35.958Z,103215.41
2023-03-01T00:31:11.907Z,103206.41
2023-03-01T00:33:38.445Z,103209.34
2023-03-01T00:36:05.449Z,103202.25
2023-03-01T00:38:35.862Z,103212.31
2023-03-01T00:41:10.444Z,103211.44
2023-03-01T00:43:40.370Z,103214.59
2023-03-01T00:46:13.002Z,103217.31
2023-03-01T00:48:39.883Z,103211.03
2023-03-01T00:51:07.586Z,103211.03
2023-03-01T00:53:34.682Z,103212.09
2023-03-01T00:56:01.777Z,103206.88
2023-03-01T00:58:28.381Z,103210.66
2023-03-01T01:00:54.885Z,103209.78
2023-03-01T01:03:22.614Z,103209.59
2023-03-01T01:05:49.090Z,103210.03
2023-03-01T01:08:15.579Z,103211.06
2023-03-01T01:10:45.021Z,103214.63
2023-03-01T01:13:12.186Z,103212.09
2023-03-01T01:15:39.690Z,103206.66
2023-03-01T01:18:06.421Z,103206.91
2023-03-01T01:20:33.269Z,103206.91
2023-03-01T01:22:59.874Z,103199.81
2023-03-01T01:25:26.419Z,103195.19
2023-03-01T01:27:52.930Z,103194.38
2023-03-01T01:30:19.868Z,103191.84
2023-03-01T01:32:47.348Z,103184.53
2023-03-01T01:35:13.861Z,103179.97
2023-03-01T01:37:40.404Z,103179.09
2023-03-01T01:40:07.405Z,103176.59
2023-03-01T01:42:33.920Z,103167.41
2023-03-01T01:45:38.937Z,103163.84
2023-03-01T01:48:11.717Z,103160.53
2023-03-01T01:50:41.128Z,103159.06
2023-03-01T01:53:15.906Z,103153.41
2023-03-01T01:55:45.779Z,103156.34
2023-03-01T01:58:16.471Z,103150.94
2023-03-01T02:00:43.024Z,103141.13
2023-03-01T02:03:12.859Z,103153.22
2023-03-01T02:05:44.426Z,103148.63
2023-03-01T02:08:13.613Z,103141.13
2023-03-01T02:10:41.493Z,103136.09
2023-03-01T02:13:08.484Z,103136.75
2023-03-01T02:15:37.213Z,103131.94
2023-03-01T02:18:05.600Z,103135.72
2023-03-01T02:20:46.523Z,103139.47
2023-03-01T02:23:13.148Z,103132.34
2023-03-01T02:25:57.230Z,103128.81
2023-03-01T02:28:44.746Z,103129.88
2023-03-01T02:31:32.950Z,103136.13
2023-03-01T02:34:00.271Z,103129.03
2023-03-01T02:36:31.709Z,103132.81
2023-03-01T02:39:00.686Z,103120.25
2023-03-01T02:41:29.781Z,103118.38
2023-03-01T02:43:56.706Z,103114.81
2023-03-01T02:46:26.550Z,103126.75
2023-03-01T02:48:56.317Z,103118.00
2023-03-01T02:51:25.860Z,103120.72
2023-03-01T02:54:14.027Z,103110.84
2023-03-01T02:56:41.747Z,103107.28
2023-03-01T02:59:09.451Z,103109.19
2023-03-01T03:01:39.163Z,103108.34
2023-03-01T03:04:08.075Z,103105.63
2023-03-01T03:06:34.809Z,103107.53
2023-03-01T03:09:01.324Z,103105.00
2023-03-01T03:11:28.219Z,103100.41
2023-03-01T03:13:54.959Z,103099.81
2023-03-01T03:16:21.985Z,103103.56
2023-03-01T03:18:49.101Z,103105.22
2023-03-01T03:21:17.271Z,103095.63
2023-03-01T03:23:44.655Z,103095.44
2023-03-01T03:26:14.316Z,103100.22
2023-03-01T03:28:41.092Z,103095.63
2023-03-01T03:31:08.340Z,103085.81
2023-03-01T03:33:34.892Z,103081.44
2023-03-01T03:36:01.452Z,103084.16
2023-03-01T03:38:27.962Z,103088.13
2023-03-01T03:41:08.216Z,103083.53
2023-03-01T03:43:37.255Z,103087.31
2023-03-01T03:46:06.816Z,103085.19
2023-03-01T03:48:39.309Z,103087.06
2023-03-01T03:51:09.031Z,103077.50
2023-03-01T03:53:35.616Z,103082.28
2023-03-01T03:56:02.191Z,103080.41
2023-03-01T03:58:28.690Z,103083.13
2023-03-01T04:00:57.845Z,103080.22
2023-03-01T04:03:26.683Z,103079.59
2023-03-01T04:05:53.937Z,103076.88
2023-03-01T04:08:22.729Z,103077.28
2023-03-01T04:10:51.917Z,103086.72
2023-03-01T04:13:22.010Z,103075.84
2023-03-01T04:15:55.573Z,103078.56
2023-03-01T04:18:25.509Z,103072.91
2023-03-01T04:20:53.335Z,103069.38
2023-03-01T04:23:21.718Z,103077.50
2023-03-01T04:25:55.477Z,103073.13
2023-03-01T04:28:22.189Z,103071.25
2023-03-01T04:30:48.853Z,103068.97
2023-03-01T04:33:15.427Z,103062.47
2023-03-01T04:35:42.081Z,103075.44
2023-03-01T04:38:09.254Z,103072.72
2023-03-01T04:40:36.411Z,103068.31
2023-03-01T04:43:04.184Z,103069.38
2023-03-01T04:45:32.965Z,103075.44
2023-03-01T04:47:59.572Z,103069.38
2023-03-01T04:50:26.668Z,103067.91
2023-03-01T04:52:53.505Z,103057.69
2023-03-01T04:55:20.324Z,103049.75
2023-03-01T04:57:47.074Z,103042.47
2023-03-01T05:00:21.164Z,103046.44
2023-03-01T05:03:09.182Z,103033.47
2023-03-01T05:05:38.261Z,103038.06
2023-03-01T05:08:07.793Z,103032.44
2023-03-01T05:10:36.488Z,103032.22
2023-03-01T05:13:04.278Z,103031.78
2023-03-01T05:15:32.849Z,103024.06
2023-03-01T05:18:00.778Z,103028.44
2023-03-01T05:20:29.691Z,103025.50
2023-03-01T05:22:59.710Z,103020.91
2023-03-01T05:25:26.988Z,103025.28
2023-03-01T05:27:53.553Z,103023.41
2023-03-01T05:30:20.162Z,103017.13
2023-03-01T05:32:49.399Z,103013.38
2023-03-01T05:35:18.372Z,102999.59
2023-03-01T05:37:48.445Z,103008.56
2023-03-01T05:40:21.077Z,102998.78
2023-03-01T05:42:50.340Z,102993.53
2023-03-01T05:45:18.266Z,102994.38
2023-03-01T05:47:46.516Z,102997.09
2023-03-01T05:50:19.559Z,102988.75
2023-03-01T05:52:49.582Z,102993.34
2023-03-01T05:55:21.236Z,103001.25
2023-03-01T05:57:48.311Z,102996.66
2023-03-01T06:00:16.750Z,103001.47
2023-03-01T06:02:43.605Z,103002.31
2023-03-01T06:05:11.937Z,102999.78
2023-03-01T06:07:38.763Z,102997.09
2023-03-01T06:10:07.033Z,102998.78
2023-03-01T06:12:38.403Z,102987.91
2023-03-01T06:15:06.494Z,102996.88
2023-03-01T06:17:38.348Z,102992.47
2023-03-01T06:20:17.724Z,102992.72
2023-03-01T06:22:45.593Z,102997.31
2023-03-01T06:25:13.582Z,102988.34
2023-03-01T06:27:40.838Z,103008.16
2023-03-01T06:30:08.917Z,102998.97
2023-03-01T06:32:35.433Z,103004.19
2023-03-01T06:35:01.977Z,103004.19
2023-03-01T06:37:28.583Z,103012.13
2023-03-01T06:39:55.080Z,103002.91
2023-03-01T06:42:21.917Z,103003.13
2023-03-01T06:44:48.400Z,102999.38
2023-03-01T06:47:14.930Z,103004.78
2023-03-01T06:49:42.072Z,103007.50
2023-03-01T06:52:08.627Z,103002.09
2023-03-01T06:54:35.298Z,103003.97
2023-03-01T06:57:01.805Z,103002.31
2023-03-01T06:59:28.277Z,102999.59
2023-03-01T07:01:54.814Z,102999.78
2023-03-01T07:04:21.365Z,103001.47
2023-03-01T07:06:55.139Z,103008.78
2023-03-01T07:09:23.692Z,103003.34
2023-03-01T07:11:50.617Z,103010.47
2023-03-01T07:14:17.591Z,102995.19
2023-03-01T07:16:44.132Z,103001.03
2023-03-01T07:19:10.640Z,103001.88
2023-03-01T07:21:39.476Z,102996.66
2023-03-01T07:24:08.234Z,103007.50
2023-03-01T07:26:34.848Z,103008.34
2023-03-01T07:29:03.652Z,103002.91
2023-03-01T07:31:30.461Z,103012.94
2023-03-01T07:33:57.398Z,103006.69
2023-03-01T07:36:26.069Z,103015.47
2023-03-01T07:38:52.954Z,103010.22
2023-03-01T07:41:19.648Z,103009.63
2023-03-01T07:43:46.148Z,103007.75
2023-03-01T07:46:12.629Z,103007.50
2023-03-01T07:48:39.352Z,103006.44
2023-03-01T07:51:07.571Z,103002.72
2023-03-01T07:53:35.328Z,103010.84
2023-03-01T07:56:10.360Z,103009.56
2023-03-01T07:58:42.461Z,103014.19
2023-03-01T08:01:12.198Z,103023.16
2023-03-01T08:03:39.501Z,103013.34
2023-03-01T08:06:08.316Z,103018.34
2023-03-01T08:08:35.067Z,103005.84
2023-03-01T08:11:03.531Z,103002.25
2023-03-01T08:13:30.941Z,103003.94
2023-03-01T08:16:09.704Z,103007.50
2023-03-01T08:18:36.467Z,103004.16
2023-03-01T08:21:05.467Z,103006.66
2023-03-01T08:23:32.139Z,102997.88
2023-03-01T08:26:19.564Z,102993.09
2023-03-01T08:28:47.769Z,102994.97
2023-03-01T08:31:19.225Z,102987.66
2023-03-01T08:33:51.620Z,102987.66
2023-03-01T08:36:19.119Z,102984.94
2023-03-01T08:38:46.849Z,102991.41
2023-03-01T08:41:13.863Z,102990.56
2023-03-01T08:43:40.404Z,102988.69
2023-03-01T08:46:07.176Z,102994.75
2023-03-01T08:48:33.928Z,102992.25
2023-03-01T08:51:30.386Z,102992.84
2023-03-01T08:53:56.891Z,102990.97
2023-03-01T08:56:23.413Z,102987.00
2023-03-01T08:58:50.728Z,102988.66
2023-03-01T09:01:19.405Z,102994.31
2023-03-01T09:03:46.921Z,102991.59
2023-03-01T09:06:14.923Z,102987.44
2023-03-01T09:08:44.013Z,102979.88
2023-03-01T09:11:12.565Z,102980.75
2023-03-01T09:13:39.266Z,102971.53
2023-03-01T09:16:09.484Z,102977.53
2023-03-01T09:18:37.085Z,102969.81
2023-03-01T09:21:08.099Z,102963.97
2023-03-01T09:23:40.001Z,102962.31
2023-03-01T09:26:09.414Z,102956.06
2023-03-01T09:28:41.964Z,102952.28
2023-03-01T09:31:08.776Z,102955.00
2023-03-01T09:33:35.646Z,102961.88
2023-03-01T09:36:05.521Z,102955.00
2023-03-01T09:38:32.670Z,102949.97
2023-03-01T09:41:00.765Z,102963.97
2023-03-01T09:43:36.038Z,102967.31
2023-03-01T09:46:07.356Z,102956.84
2023-03-01T09:48:45.750Z,102944.16
2023-03-01T09:51:18.752Z,102947.25
2023-03-01T09:53:45.423Z,102947.88
2023-03-01T09:56:31.085Z,102950.16
2023-03-01T09:59:35.546Z,102947.66
2023-03-01T10:02:44.808Z,102933.88
2023-03-01T10:05:38.015Z,102935.53
2023-03-01T10:08:24.680Z,102928.19
2023-03-01T10:10:53.002Z,102923.84
2023-03-01T10:13:44.761Z,102924.44
2023-03-01T10:16:17.438Z,102931.31
2023-03-01T10:18:59.263Z,102926.72
2023-03-01T10:21:28.336Z,102921.28
2023-03-01T10:24:09.783Z,102921.03
2023-03-01T10:26:41.268Z,102923.75
2023-03-01T10:29:10.892Z,102915.59
2023-03-01T10:31:47.694Z,102913.75
2023-03-01T10:34:24.104Z,102911.03
2023-03-01T10:36:53.717Z,102901.00
2023-03-01T10:39:26.243Z,102911.03
2023-03-01T10:42:06.794Z,102905.38
2023-03-01T10:44:40.889Z,102900.56
2023-03-01T10:47:15.689Z,102905.13
2023-03-01T10:50:15.845Z,102893.00
2023-03-01T10:52:42.615Z,102897.16
2023-03-01T10:55:37.087Z,102887.72
2023-03-01T10:58:20.051Z,102887.28
2023-03-01T11:00:49.348Z,102889.56
2023-03-01T11:03:21.851Z,102885.78
2023-03-01T11:05:53.885Z,102878.00
2023-03-01T11:08:42.566Z,102881.34
2023-03-01T11:11:15.295Z,102880.09
2023-03-01T11:14:25.927Z,102866.50
2023-03-01T11:17:03.162Z,102851.63
2023-03-01T11:19:29.926Z,102854.34
2023-03-01T11:22:04.110Z,102845.97
2023-03-01T11:24:44.811Z,102843.03
2023-03-01T11:27:19.343Z,102840.06
2023-03-01T11:29:52.213Z,102839.84
2023-03-01T11:32:21.354Z,102839.63
2023-03-01T11:34:53.685Z,102848.59
2023-03-01T11:37:44.981Z,102844.03
2023-03-01T11:40:25.112Z,102834.81
2023-03-01T11:43:04.053Z,102841.88
2023-03-01T11:45:48.527Z,102834.34
2023-03-01T11:48:53.979Z,102832.22
2023-03-01T11:51:26.443Z,102837.47
2023-03-01T11:54:26.397Z,102835.31
2023-03-01T11:57:05.861Z,102823.38
2023-03-01T12:00:00.561Z,102816.91
2023-03-01T12:02:56.260Z,102817.50
2023-03-01T12:05:40.835Z,102815.41
2023-03-01T12:08:09.119Z,102801.56
2023-03-01T12:10:47.771Z,102804.28
2023-03-01T12:13:59.496Z,102787.75
2023-03-01T12:16:53.987Z,102787.28
2023-03-01T12:19:45.029Z,102770.97
2023-03-01T12:22:47.399Z,102771.81
2023-03-01T12:25:26.093Z,102777.88
2023-03-01T12:28:11.217Z,102778.50
2023-03-01T12:30:47.965Z,102770.09
2023-03-01T12:33:23.645Z,102762.78
2023-03-01T12:36:28.775Z,102757.13
2023-03-01T12:39:14.267Z,102751.44
2023-03-01T12:42:39.227Z,102753.91
2023-03-01T12:45:30.555Z,102756.19
2023-03-01T12:48:24.455Z,102761.41
2023-03-01T12:50:58.275Z,102754.06
2023-03-01T12:53:29.315Z,102762.81
2023-03-01T12:56:01.558Z,102762.59
2023-03-01T12:58:49.328Z,102749.59
2023-03-01T13:01:41.670Z,102750.41
2023-03-01T13:04:26.831Z,102744.53
2023-03-01T13:07:05.228Z,102748.06
2023-03-01T13:09:56.105Z,102748.88
2023-03-01T13:12:45.135Z,102737.81
2023-03-01T13:15:23.840Z,102736.72
2023-03-01T13:17:59.585Z,102744.69
2023-03-01T13:20:46.170Z,102739.81
2023-03-01T13:23:29.679Z,102741.47
2023-03-01T13:26:05.411Z,102734.75
2023-03-01T13:28:49.816Z,102730.13
2023-03-01T13:31:16.267Z,102725.31
2023-03-01T13:33:48.016Z,102709.81
2023-03-01T13:36:30.671Z,102699.75
2023-03-01T13:39:02.593Z,102699.50
2023-03-01T13:41:44.208Z,102682.13
2023-03-01T13:44:30.999Z,102680.00
2023-03-01T13:46:59.131Z,102680.00
2023-03-01T13:49:45.257Z,102683.78
2023-03-01T13:52:32.621Z,102677.06
2023-03-01T13:55:00.574Z,102670.53
2023-03-01T13:57:33.784Z,102673.03
2023-03-01T14:00:00.397Z,102675.53
2023-03-01T14:02:26.959Z,102667.13
2023-03-01T14:05:00.736Z,102671.50
2023-03-01T14:07:30.855Z,102679.44
2023-03-01T14:10:00.894Z,102661.22
2023-03-01T14:12:53.888Z,102662.84
2023-03-01T14:15:29.477Z,102658.84
2023-03-01T14:17:58.977Z,102650.44
2023-03-01T14:20:28.377Z,102645.59
2023-03-01T14:22:58.157Z,102649.16
2023-03-01T14:25:33.613Z,102641.56
2023-03-01T14:28:05.434Z,102637.78
2023-03-01T14:30:42.454Z,102627.47
2023-03-01T14:33:40.516Z,102616.59
2023-03-01T14:36:08.708Z,102621.81
2023-03-01T14:38:38.122Z,102621.81
2023-03-01T14:41:07.579Z,102606.31
2023-03-01T14:43:36.321Z,102610.44
2023-03-01T14:46:03.014Z,102603.69
2023-03-01T14:48:32.092Z,102595.66
2023-03-01T14:50:59.172Z,102591.06
2023-03-01T14:53:29.698Z,102592.81
2023-03-01T14:56:01.328Z,102586.56
2023-03-01T14:58:28.265Z,102582.06
2023-03-01T15:01:00.506Z,102576.88
2023-03-01T15:03:34.053Z,102586.38
2023-03-01T15:06:05.574Z,102574.31
2023-03-01T15:08:35.272Z,102576.53
2023-03-01T15:11:03.814Z,102578.25
2023-03-01T15:13:33.763Z,102576.59
2023-03-01T15:16:10.908Z,102575.28
2023-03-01T15:18:38.708Z,102578.84
2023-03-01T15:21:21.096Z,102566.38
2023-03-01T15:23:54.483Z,102554.66
2023-03-01T15:26:36.228Z,102563.06
2023-03-01T15:29:03.037Z,102562.22
2023-03-01T15:31:36.198Z,102562.22
2023-03-01T15:34:11.659Z,102551.31
2023-03-01T15:36:50.654Z,102552.41
2023-03-01T15:39:38.274Z,102555.13
2023-03-01T15:42:11.170Z,102557.84
2023-03-01T15:44:44.187Z,102557.84
2023-03-01T15:47:29.996Z,102560.31
2023-03-01T15:49:58.988Z,102550.28
2023-03-01T15:52:42.293Z,102555.47
2023-03-01T15:55:30.420Z,102562.56
2023-03-01T15:58:03.670Z,102562.56
2023-03-01T16:00:30.468Z,102567.78
2023-03-01T16:02:57.790Z,102548.72
2023-03-01T16:05:28.312Z,102547.88
2023-03-01T16:07:55.203Z,102543.00
2023-03-01T16:10:21.904Z,102541.34
2023-03-01T16:12:48.496Z,102542.44
2023-03-01T16:15:19.212Z,102536.97
2023-03-01T16:17:45.845Z,102540.53
2023-03-01T16:20:19.607Z,102531.25
2023-03-01T16:22:50.289Z,102529.63
2023-03-01T16:25:18.850Z,102535.91
2023-03-01T16:27:47.143Z,102536.97
2023-03-01T16:30:15.948Z,102531.53
2023-03-01T16:32:44.689Z,102538.84
2023-03-01T16:35:13.601Z,102530.66
2023-03-01T16:37:40.677Z,102524.41
2023-03-01T16:40:17.074Z,102521.94
2023-03-01T16:42:43.753Z,102518.38
2023-03-01T16:45:22.717Z,102519.44
2023-03-01T16:47:50.183Z,102516.97
2023-03-01T16:50:17.034Z,102521.59
2023-03-01T16:52:43.546Z,102530.03
2023-03-01T16:55:10.727Z,102521.25
2023-03-01T16:57:41.534Z,102517.72
2023-03-01T17:00:12.236Z,102518.78
2023-03-01T17:02:38.873Z,102517.13
2023-03-01T17:05:06.289Z,102516.06
2023-03-01T17:07:34.358Z,102515.22
2023-03-01T17:10:08.997Z,102521.75
2023-03-01T17:12:35.981Z,102523.66
2023-03-01T17:15:03.605Z,102532.66
2023-03-01T17:17:30.420Z,102518.47
2023-03-01T17:19:57.448Z,102532.91
2023-03-01T17:22:24.108Z,102532.31
2023-03-01T17:24:50.751Z,102533.13
2023-03-01T17:27:18.477Z,102529.59
2023-03-01T17:29:45.486Z,102541.56
2023-03-01T17:32:12.222Z,102535.28
2023-03-01T17:34:38.978Z,102548.09
2023-03-01T17:37:05.510Z,102543.69
2023-03-01T17:39:36.304Z,102543.69
2023-03-01T17:42:05.374Z,102542.06
2023-03-01T17:44:34.347Z,102553.78
2023-03-01T17:47:02.157Z,102551.06
2023-03-01T17:49:29.097Z,102555.69
2023-03-01T17:51:55.970Z,102551.06
2023-03-01T17:54:22.668Z,102551.50
2023-03-01T17:56:49.901Z,102553.41
2023-03-01T17:59:19.595Z,102558.03
2023-03-01T18:01:46.961Z,102557.22
2023-03-01T18:04:14.007Z,102554.75
2023-03-01T18:06:43.364Z,102557.22
2023-03-01T18:09:10.070Z,102562.66
2023-03-01T18:11:36.662Z,102565.66
2023-03-01T18:14:04.216Z,102569.41
2023-03-01T18:16:32.095Z,102568.84
2023-03-01T18:18:59.967Z,102570.75
2023-03-01T18:21:26.985Z,102570.16
2023-03-01T18:23:53.813Z,102576.44
2023-03-01T18:26:22.527Z,102575.38
2023-03-01T18:28:51.603Z,102574.31
2023-03-01T18:31:22.341Z,102577.03
2023-03-01T18:33:52.481Z,102577.03
2023-03-01T18:36:20.857Z,102581.66
2023-03-01T18:38:48.690Z,102577.84
2023-03-01T18:41:16.262Z,102567.22
2023-03-01T18:43:43.118Z,102569.94
2023-03-01T18:46:10.102Z,102568.84
2023-03-01T18:48:37.075Z,102572.41
2023-03-01T18:51:14.546Z,102568.84
2023-03-01T18:53:41.194Z,102560.91
2023-03-01T18:56:09.228Z,102572.66
2023-03-01T18:58:36.632Z,102576.44
2023-03-01T19:01:06.303Z,102564.72
2023-03-01T19:03:32.989Z,102563.06
2023-03-01T19:06:01.772Z,102580.50
2023-03-01T19:08:30.532Z,102573.38
2023-03-01T19:11:03.159Z,102562.72
2023-03-01T19:13:30.527Z,102573.63
2023-03-01T19:16:18.340Z,102566.53
2023-03-01T19:18:51.350Z,102578.72
2023-03-01T19:21:20.034Z,102568.91
2023-03-01T19:23:48.875Z,102567.47
2023-03-01T19:26:18.181Z,102581.94
2023-03-01T19:28:45.196Z,102569.13
2023-03-01T19:31:15.717Z,102574.56
2023-03-01T19:33:43.189Z,102576.75
2023-03-01T19:36:11.325Z,102575.91
2023-03-01T19:38:40.629Z,102561.44
2023-03-01T19:41:14.727Z,102565.25
2023-03-01T19:43:42.557Z,102572.03
2023-03-01T19:46:09.856Z,102558.16
2023-03-01T19:48:36.468Z,102560.88
2023-03-01T19:51:03.161Z,102548.31
2023-03-01T19:53:29.796Z,102559.22
2023-03-01T19:56:00.822Z,102554.81
2023-03-01T19:58:28.921Z,102553.19
2023-03-01T20:00:58.901Z,102554.25
2023-03-01T20:03:27.211Z,102558.06
2023-03-01T20:05:53.976Z,102556.97
2023-03-01T20:08:20.571Z,102552.59
2023-03-01T20:10:47.332Z,102552.84
2023-03-01T20:13:13.885Z,102545.47
2023-03-01T20:15:44.131Z,102557.72
2023-03-01T20:18:11.595Z,102556.84
2023-03-01T20:20:38.617Z,102566.09
2023-03-01T20:23:05.432Z,102555.47
2023-03-01T20:25:32.003Z,102561.47
2023-03-01T20:27:58.751Z,102552.50
2023-03-01T20:30:25.349Z,102561.75
2023-03-01T20:32:51.920Z,102568.25
2023-03-01T20:35:18.750Z,102563.88
2023-03-01T20:37:45.263Z,102562.22
2023-03-01T20:40:12.348Z,102566.84
2023-03-01T20:42:38.933Z,102566.25
2023-03-01T20:45:06.018Z,102579.63
2023-03-01T20:47:32.531Z,102563.78
2023-03-01T20:50:01.540Z,102574.66
2023-03-01T20:52:34.209Z,102569.69
2023-03-01T20:55:03.248Z,102575.13
2023-03-01T20:57:30.832Z,102580.59
2023-03-01T20:59:57.441Z,102582.50
2023-03-01T21:02:23.951Z,102583.09
2023-03-01T21:04:50.464Z,102580.59
2023-03-01T21:07:17.030Z,102588.75
2023-03-01T21:09:44.767Z,102587.38
2023-03-01T21:12:12.342Z,102597.41
2023-03-01T21:14:47.205Z,102587.84
2023-03-01T21:17:15.600Z,102592.47
2023-03-01T21:19:43.926Z,102589.13
2023-03-01T21:22:14.824Z,102585.84
2023-03-01T21:24:42.229Z,102589.63
2023-03-01T21:27:09.719Z,102586.31
2023-03-01T21:29:45.743Z,102597.44
2023-03-01T21:32:14.228Z,102607.75
2023-03-01T21:34:41.436Z,102600.63
2023-03-01T21:37:10.439Z,102587.25
2023-03-01T21:39:37.660Z,102592.97
2023-03-01T21:42:05.080Z,102603.03
2023-03-01T21:44:32.512Z,102599.69
2023-03-01T21:46:59.240Z,102600.78
2023-03-01T21:49:27.022Z,102599.34
2023-03-01T21:51:53.837Z,102603.16
2023-03-01T21:54:20.829Z,102600.66
2023-03-01T21:56:48.001Z,102603.59
2023-03-01T21:59:21.314Z,102600.88
2023-03-01T22:01:48.874Z,102598.41
2023-03-01T22:04:16.722Z,102601.34
2023-03-01T22:06:45.318Z,102597.19
2023-03-01T22:09:17.903Z,102598.25
2023-03-01T22:11:47.392Z,102602.06
2023-03-01T22:14:14.365Z,102603.94
2023-03-01T22:16:45.692Z,102604.16
2023-03-01T22:19:14.252Z,102597.31
2023-03-01T22:21:47.102Z,102594.81
2023-03-01T22:24:15.058Z,102588.34
2023-03-01T22:26:43.900Z,102578.75
2023-03-01T22:29:12.911Z,102589.03
2023-03-01T22:31:40.715Z,102582.75
2023-03-01T22:34:08.715Z,102578.41
2023-03-01T22:36:35.509Z,102580.50
2023-03-01T22:41:31.239Z,102573.88
2023-03-01T22:43:58.084Z,102575.78
2023-03-01T22:46:25.712Z,102579.94
2023-03-01T22:48:52.348Z,102574.72
2023-03-01T22:51:25.274Z,102583.13
2023-03-01T22:53:52.173Z,102575.22
2023-03-01T22:56:22.329Z,102580.88
2023-03-01T22:58:49.330Z,102581.13
2023-03-01T23:01:19.020Z,102579.22
2023-03-01T23:03:46.800Z,102577.56
2023-03-01T23:06:14.757Z,102575.69
2023-03-01T23:08:41.474Z,102572.13
2023-03-01T23:11:14.718Z,102576.97
2023-03-01T23:13:42.179Z,102578.03
2023-03-01T23:16:10.344Z,102579.69
2023-03-01T23:18:37.432Z,102587.28
2023-03-01T23:21:12.306Z,102582.06
2023-03-01T23:23:39.089Z,102583.94
2023-03-01T23:26:06.891Z,102578.25
2023-03-01T23:28:34.654Z,102585.59
2023-03-01T23:31:05.668Z,102579.59
2023-03-01T23:33:39.048Z,102587.97
2023-03-01T23:36:06.231Z,102584.41
2023-03-01T23:38:33.008Z,102586.31
2023-03-01T23:40:59.824Z,102581.94
2023-03-01T23:43:26.505Z,102578.63
2023-03-01T23:45:54.063Z,102567.53
2023-03-01T23:48:20.602Z,102575.91
2023-03-01T23:50:48.341Z,102575.91
2023-03-01T23:53:17.764Z,102575.06
2023-03-01T23:55:47.791Z,102573.66
2023-03-01T23:58:14.291Z,102575.78
